Marengo, Ohio
Current Conditions -  °F | °C
As of 3:36 PM on Tuesday 25 Nov 2014 (Local Time) from K4I3 Reporting Station
Overcast Overcast  
Wind Chill: 30°   Ceiling: 3000
Heat Index: 37°   Visibility: 10mi
Dew Point: 27°   Wind: 10mph
Humidity: 65%   Direction: 230°SW
Pressure: 30.09"   Gusts: NA
Location:  40.4°N, 82.81°W
Report Text: K4I3 252036Z AUTO 23009KT 10SM OVC030 03/M03 A3009 RMK AO2
Loading
Personal Weather Stations






























Interactive Weather Map New forecast layout! Learn more

10-Day Weather Forecast

Advertisements
Track Severe Weather on mobile